Time;durP1;ratioP1;P1;durP2;ratioP2;P2;SDS_P1;SDS_P2;PMS_P1;PMS_P2;Temp;Humidity;BMP_temperature;BMP_pressure;BME280_temperature;BME280_humidity;BME280_pressure;Samples;Min_cycle;Max_cycle;Signal;HPM_P1;HPM_P2
2022/03/20 00:02:10;;;;;;;10.57;6.88;;;;;;;;;;5006945;28;20041;-75
2022/03/20 00:04:37;;;;;;;13.20;6.57;;;;;;;;;;4988194;28;20137;-75
2022/03/20 00:07:11;;;;;;;8.77;6.05;;;;;;;;;;5006383;28;20041;-75
2022/03/20 00:09:38;;;;;;;11.13;6.28;;;;;;;;;;4989197;28;20033;-75
2022/03/20 00:12:06;;;;;;;13.40;7.03;;;;;;;;;;4992646;28;20116;-76
2022/03/20 00:14:31;;;;;;;13.85;7.07;;;;;;;;;;5006089;28;20033;-78
2022/03/20 00:16:57;;;;;;;14.73;7.15;;;;;;;;;;4984623;28;20107;-77
2022/03/20 00:19:23;;;;;;;12.40;7.00;;;;;;;;;;5007607;28;20033;-76
2022/03/20 00:21:49;;;;;;;9.60;7.20;;;;;;;;;;5006866;28;20057;-76
2022/03/20 00:24:15;;;;;;;12.07;7.60;;;;;;;;;;5006700;28;20129;-76
2022/03/20 00:26:41;;;;;;;12.50;6.97;;;;;;;;;;4988429;28;20076;-76
2022/03/20 00:29:10;;;;;;;11.35;7.30;;;;;;;;;;5005734;28;20140;-76
2022/03/20 00:31:38;;;;;;;14.02;7.57;;;;;;;;;;4971907;28;20098;-76
2022/03/20 00:34:03;;;;;;;15.38;7.68;;;;;;;;;;5004105;28;20025;-76
2022/03/20 00:36:28;;;;;;;13.77;7.38;;;;;;;;;;4988193;28;20116;-76
2022/03/20 00:38:54;;;;;;;11.00;7.63;;;;;;;;;;5005133;28;20049;-76
2022/03/20 00:41:20;;;;;;;13.82;7.72;;;;;;;;;;5005895;28;20040;-76
2022/03/20 00:43:46;;;;;;;11.70;8.30;;;;;;;;;;4988223;28;21915;-75
2022/03/20 00:46:12;;;;;;;15.68;8.90;;;;;;;;;;5006343;28;20364;-76
2022/03/20 00:48:37;;;;;;;15.77;7.65;;;;;;;;;;5004348;28;20124;-76
2022/03/20 00:51:06;;;;;;;12.40;9.00;;;;;;;;;;5005412;28;20021;-76
2022/03/20 00:53:31;;;;;;;14.27;9.25;;;;;;;;;;4988939;28;20230;-76
2022/03/20 00:55:56;;;;;;;14.93;8.77;;;;;;;;;;5006509;28;20033;-76
2022/03/20 00:58:22;;;;;;;14.85;9.00;;;;;;;;;;4996000;28;20057;-70
2022/03/20 01:00:50;;;;;;;14.32;8.55;;;;;;;;;;5015238;28;20499;-71
2022/03/20 01:03:16;;;;;;;13.55;8.20;;;;;;;;;;5015850;28;20077;-71
2022/03/20 01:05:44;;;;;;;15.70;9.35;;;;;;;;;;5017685;28;20048;-70
2022/03/20 01:08:10;;;;;;;14.73;9.00;;;;;;;;;;5014459;28;20281;-69
2022/03/20 01:10:37;;;;;;;12.48;8.88;;;;;;;;;;5016275;28;20037;-70
2022/03/20 01:13:03;;;;;;;13.88;9.43;;;;;;;;;;5015903;28;20713;-71
2022/03/20 01:15:28;;;;;;;14.27;8.95;;;;;;;;;;4998663;28;20041;-70
2022/03/20 01:17:56;;;;;;;13.73;8.80;;;;;;;;;;5014044;28;20033;-71
2022/03/20 01:20:24;;;;;;;13.60;8.60;;;;;;;;;;5016548;28;20476;-70
2022/03/20 01:22:52;;;;;;;14.57;9.15;;;;;;;;;;5001262;28;20033;-70
2022/03/20 01:25:18;;;;;;;14.57;9.18;;;;;;;;;;5017285;28;20036;-70
2022/03/20 01:27:46;;;;;;;14.38;9.45;;;;;;;;;;5016714;28;20030;-70
2022/03/20 01:30:12;;;;;;;17.02;9.60;;;;;;;;;;5014946;28;20119;-70
2022/03/20 01:32:37;;;;;;;16.70;10.70;;;;;;;;;;5016550;28;20033;-70
2022/03/20 01:35:04;;;;;;;14.35;9.45;;;;;;;;;;5016106;28;20140;-70
2022/03/20 01:37:29;;;;;;;17.48;10.27;;;;;;;;;;5001493;28;20127;-70
2022/03/20 01:39:55;;;;;;;18.55;10.75;;;;;;;;;;5016253;28;20214;-71
2022/03/20 01:42:23;;;;;;;14.75;9.68;;;;;;;;;;5016114;28;20033;-71
2022/03/20 01:44:52;;;;;;;15.93;10.18;;;;;;;;;;5004624;28;20409;-70
2022/03/20 01:47:20;;;;;;;16.35;9.85;;;;;;;;;;4997857;28;20021;-70
2022/03/20 01:49:50;;;;;;;14.55;9.55;;;;;;;;;;5016212;28;22217;-71
2022/03/20 01:52:26;;;;;;;14.80;9.18;;;;;;;;;;5000253;28;20036;-71
2022/03/20 01:54:52;;;;;;;12.90;8.23;;;;;;;;;;5016609;28;20084;-71
2022/03/20 01:57:20;;;;;;;13.85;8.63;;;;;;;;;;4998585;28;20033;-70
2022/03/20 01:59:46;;;;;;;16.40;9.23;;;;;;;;;;4997888;28;20076;-72
2022/03/20 02:02:11;;;;;;;14.20;8.65;;;;;;;;;;4995641;28;20025;-75
2022/03/20 02:04:37;;;;;;;17.10;9.13;;;;;;;;;;4996266;28;20029;-76
2022/03/20 02:07:06;;;;;;;14.73;8.15;;;;;;;;;;4997936;28;20029;-76
2022/03/20 02:09:32;;;;;;;12.95;8.43;;;;;;;;;;4999866;28;21931;-76
2022/03/20 02:12:00;;;;;;;13.95;8.52;;;;;;;;;;5000698;28;20141;-75
2022/03/20 02:14:25;;;;;;;14.75;8.13;;;;;;;;;;4997524;28;20014;-76
2022/03/20 02:16:50;;;;;;;17.08;8.63;;;;;;;;;;4999628;28;20123;-76
2022/03/20 02:19:18;;;;;;;13.07;7.88;;;;;;;;;;4986056;28;21238;-75
2022/03/20 02:21:50;;;;;;;24.33;9.48;;;;;;;;;;5001299;28;20025;-75
2022/03/20 02:24:36;;;;;;;14.20;8.25;;;;;;;;;;5000327;28;20434;-75
2022/03/20 02:27:12;;;;;;;16.85;8.98;;;;;;;;;;5013442;28;20038;-76
2022/03/20 02:29:41;;;;;;;15.68;8.73;;;;;;;;;;4999519;28;20033;-76
2022/03/20 02:32:07;;;;;;;13.80;8.77;;;;;;;;;;4997633;28;20026;-76
2022/03/20 02:34:33;;;;;;;18.35;8.85;;;;;;;;;;5000696;28;20024;-76
2022/03/20 02:36:59;;;;;;;16.35;9.07;;;;;;;;;;4999755;28;20049;-76
2022/03/20 02:39:24;;;;;;;14.55;8.15;;;;;;;;;;4998442;28;20512;-77
2022/03/20 02:41:50;;;;;;;13.10;9.10;;;;;;;;;;4999534;28;20068;-76
2022/03/20 02:44:16;;;;;;;15.25;8.63;;;;;;;;;;5005747;28;20065;-75
2022/03/20 02:46:42;;;;;;;15.00;8.65;;;;;;;;;;5000556;28;20133;-76
2022/03/20 02:49:08;;;;;;;17.40;9.48;;;;;;;;;;4968674;28;20041;-76
2022/03/20 02:51:35;;;;;;;21.80;9.52;;;;;;;;;;4999749;28;20484;-75
2022/03/20 02:54:02;;;;;;;16.73;9.30;;;;;;;;;;4998670;28;20042;-75
2022/03/20 02:56:29;;;;;;;15.65;9.27;;;;;;;;;;4999536;28;20129;-75
2022/03/20 02:58:57;;;;;;;15.75;9.10;;;;;;;;;;5004199;28;20049;-76
2022/03/20 03:01:23;;;;;;;17.02;9.75;;;;;;;;;;4999989;28;20041;-75
2022/03/20 03:03:48;;;;;;;15.98;9.13;;;;;;;;;;4999512;28;20302;-75
2022/03/20 03:06:16;;;;;;;16.48;10.07;;;;;;;;;;4998903;28;20037;-77
2022/03/20 03:11:28;;;;;;;17.52;9.77;;;;;;;;;;4997886;28;20037;-76
2022/03/20 03:13:53;;;;;;;14.57;9.30;;;;;;;;;;4998393;28;20021;-76
2022/03/20 03:16:18;;;;;;;16.10;10.00;;;;;;;;;;4996843;28;20029;-75
2022/03/20 03:18:45;;;;;;;18.02;10.25;;;;;;;;;;4998851;28;20357;-75
2022/03/20 03:21:14;;;;;;;17.42;9.60;;;;;;;;;;5000441;28;20144;-78
2022/03/20 03:23:40;;;;;;;17.42;10.82;;;;;;;;;;5000938;28;20495;-75
2022/03/20 03:26:08;;;;;;;16.58;10.70;;;;;;;;;;4998445;28;20036;-75
2022/03/20 03:28:34;;;;;;;16.60;10.82;;;;;;;;;;4999123;28;20026;-75
2022/03/20 03:31:00;;;;;;;17.80;11.30;;;;;;;;;;5000256;28;20033;-75
2022/03/20 03:33:28;;;;;;;16.25;10.60;;;;;;;;;;4998987;28;20500;-75
2022/03/20 03:35:57;;;;;;;21.25;11.05;;;;;;;;;;5015967;28;20516;-77
2022/03/20 03:38:26;;;;;;;17.08;11.20;;;;;;;;;;5013418;28;20117;-77
2022/03/20 03:40:52;;;;;;;19.75;11.02;;;;;;;;;;5000064;28;20056;-75
2022/03/20 03:43:22;;;;;;;21.70;11.80;;;;;;;;;;4997282;28;20103;-78
2022/03/20 03:45:50;;;;;;;18.02;11.40;;;;;;;;;;4982857;28;20048;-77
2022/03/20 03:48:21;;;;;;;17.35;11.27;;;;;;;;;;4998636;28;20038;-77
2022/03/20 03:50:47;;;;;;;20.17;11.93;;;;;;;;;;4998225;28;20437;-76
2022/03/20 03:53:15;;;;;;;18.35;11.75;;;;;;;;;;4998822;28;20026;-76
2022/03/20 03:55:45;;;;;;;22.25;13.32;;;;;;;;;;4999265;28;20039;-77
2022/03/20 03:58:12;;;;;;;19.27;13.00;;;;;;;;;;4999955;28;20025;-76
2022/03/20 04:00:41;;;;;;;23.85;13.50;;;;;;;;;;5001729;28;20040;-76
2022/03/20 04:03:06;;;;;;;22.95;14.00;;;;;;;;;;5004429;28;20385;-77
2022/03/20 04:05:34;;;;;;;21.17;14.02;;;;;;;;;;5018442;28;20091;-76
2022/03/20 04:07:59;;;;;;;21.60;14.02;;;;;;;;;;5000530;28;20029;-76
2022/03/20 04:10:25;;;;;;;25.00;14.32;;;;;;;;;;5017534;28;20456;-77
2022/03/20 04:12:50;;;;;;;25.05;14.15;;;;;;;;;;5018727;28;20052;-77
2022/03/20 04:15:25;;;;;;;21.23;13.57;;;;;;;;;;5018176;28;20032;-78
2022/03/20 04:17:51;;;;;;;21.55;13.45;;;;;;;;;;5019152;28;20031;-75
2022/03/20 04:20:16;;;;;;;21.40;13.77;;;;;;;;;;5018124;28;20029;-77
2022/03/20 04:25:29;;;;;;;26.48;14.38;;;;;;;;;;4999644;28;20939;-78
2022/03/20 04:27:56;;;;;;;18.88;13.50;;;;;;;;;;5018666;28;20029;-75
2022/03/20 04:30:22;;;;;;;20.63;13.43;;;;;;;;;;5017340;28;20475;-76
2022/03/20 04:32:47;;;;;;;25.20;14.00;;;;;;;;;;5000428;28;20033;-76
2022/03/20 04:35:13;;;;;;;21.58;13.82;;;;;;;;;;5019120;28;20033;-76
2022/03/20 04:37:38;;;;;;;22.35;13.00;;;;;;;;;;5018192;28;20025;-77
2022/03/20 04:40:06;;;;;;;21.75;13.55;;;;;;;;;;5019058;28;20137;-75
2022/03/20 04:42:31;;;;;;;22.88;13.93;;;;;;;;;;5017268;28;20199;-77
2022/03/20 04:44:58;;;;;;;22.33;13.55;;;;;;;;;;5017875;28;20672;-76
2022/03/20 04:58:30;;;;;;;22.80;14.10;;;;;;;;;;5003183;28;20474;-77
2022/03/20 05:01:00;;;;;;;21.65;13.35;;;;;;;;;;5000356;28;20049;-77
2022/03/20 05:03:31;;;;;;;24.40;13.77;;;;;;;;;;5018996;28;20029;-77
2022/03/20 05:05:57;;;;;;;24.20;13.50;;;;;;;;;;5017922;28;20085;-77
2022/03/20 05:08:22;;;;;;;20.58;13.70;;;;;;;;;;5015812;28;20038;-77
2022/03/20 05:13:37;;;;;;;23.27;14.48;;;;;;;;;;5015751;28;20029;-77
2022/03/20 05:16:04;;;;;;;21.83;14.60;;;;;;;;;;4999353;28;20601;-77
2022/03/20 05:18:29;;;;;;;22.27;13.77;;;;;;;;;;4997674;28;20033;-77
2022/03/20 05:20:54;;;;;;;23.17;14.57;;;;;;;;;;5015703;28;20118;-77
2022/03/20 05:23:20;;;;;;;20.52;13.82;;;;;;;;;;5017406;28;20048;-78
2022/03/20 05:25:48;;;;;;;23.60;14.20;;;;;;;;;;5016466;28;20586;-78
2022/03/20 05:28:14;;;;;;;24.38;14.98;;;;;;;;;;5016354;28;20334;-78
2022/03/20 05:30:40;;;;;;;26.35;14.38;;;;;;;;;;5017218;28;20621;-78
2022/03/20 05:33:07;;;;;;;20.92;13.93;;;;;;;;;;5002824;28;20029;-77
2022/03/20 05:35:36;;;;;;;21.92;13.30;;;;;;;;;;5015779;28;20079;-77
2022/03/20 05:38:01;;;;;;;22.88;13.57;;;;;;;;;;5017781;28;20029;-77
2022/03/20 05:40:27;;;;;;;22.02;14.05;;;;;;;;;;5017402;28;20047;-76
2022/03/20 05:42:52;;;;;;;24.33;14.93;;;;;;;;;;5021386;28;20048;-77
2022/03/20 05:45:18;;;;;;;25.10;14.63;;;;;;;;;;5005331;28;20273;-77
2022/03/20 05:47:43;;;;;;;21.70;14.70;;;;;;;;;;5003773;28;20095;-77
2022/03/20 05:50:09;;;;;;;25.88;15.15;;;;;;;;;;5002499;28;20491;-77
2022/03/20 05:52:36;;;;;;;23.00;15.48;;;;;;;;;;5020551;28;20033;-77
2022/03/20 05:55:02;;;;;;;24.88;15.20;;;;;;;;;;5007820;28;20110;-77
2022/03/20 06:00:22;;;;;;;23.25;15.02;;;;;;;;;;5018352;28;20088;-77
2022/03/20 06:02:49;;;;;;;24.73;15.70;;;;;;;;;;5020721;28;20132;-77
2022/03/20 06:05:17;;;;;;;23.23;15.30;;;;;;;;;;5002699;28;20033;-77
2022/03/20 06:07:46;;;;;;;25.35;15.85;;;;;;;;;;5009349;28;20036;-77
2022/03/20 06:10:15;;;;;;;27.17;15.18;;;;;;;;;;5020426;28;20116;-77
2022/03/20 06:12:42;;;;;;;25.02;16.52;;;;;;;;;;5020131;28;20098;-78
2022/03/20 06:15:08;;;;;;;24.90;15.55;;;;;;;;;;5004484;28;20025;-76
2022/03/20 06:17:46;;;;;;;27.58;15.95;;;;;;;;;;5021148;28;20029;-78
2022/03/20 06:20:15;;;;;;;26.73;16.10;;;;;;;;;;5010917;28;20021;-78
2022/03/20 06:22:43;;;;;;;27.02;16.05;;;;;;;;;;5001950;28;20036;-77
2022/03/20 06:25:13;;;;;;;26.50;16.08;;;;;;;;;;5018912;28;20028;-77
2022/03/20 06:27:45;;;;;;;26.00;16.52;;;;;;;;;;5020346;28;20089;-77
2022/03/20 06:30:14;;;;;;;25.45;16.15;;;;;;;;;;5020744;28;20029;-78
2022/03/20 06:32:40;;;;;;;25.98;16.60;;;;;;;;;;5022999;28;20329;-77
2022/03/20 06:35:11;;;;;;;26.40;16.38;;;;;;;;;;5004335;28;20122;-72
2022/03/20 06:37:42;;;;;;;26.50;16.67;;;;;;;;;;5000107;28;20021;-73
2022/03/20 06:40:11;;;;;;;25.58;16.38;;;;;;;;;;5019335;28;20055;-72
2022/03/20 06:42:39;;;;;;;26.75;16.65;;;;;;;;;;5017526;28;20139;-72
2022/03/20 06:45:08;;;;;;;27.80;16.83;;;;;;;;;;4999771;28;20184;-73
2022/03/20 06:47:39;;;;;;;27.20;16.55;;;;;;;;;;4999352;28;20040;-72
2022/03/20 06:50:08;;;;;;;25.08;16.90;;;;;;;;;;5019393;28;20114;-72
2022/03/20 06:52:33;;;;;;;28.05;16.60;;;;;;;;;;5018040;28;20048;-72
2022/03/20 06:55:00;;;;;;;25.75;16.50;;;;;;;;;;5001173;28;20547;-72
2022/03/20 06:57:26;;;;;;;25.73;16.35;;;;;;;;;;5016609;28;20034;-71
2022/03/20 06:59:55;;;;;;;24.45;16.40;;;;;;;;;;5018874;28;20057;-71
2022/03/20 07:02:20;;;;;;;28.27;16.85;;;;;;;;;;5007443;28;20037;-72
2022/03/20 07:04:48;;;;;;;24.65;16.42;;;;;;;;;;5017750;28;20095;-71
2022/03/20 07:07:17;;;;;;;24.83;16.58;;;;;;;;;;5017001;28;20639;-72
2022/03/20 07:09:42;;;;;;;26.52;16.10;;;;;;;;;;5017263;28;20039;-71
2022/03/20 07:12:09;;;;;;;26.70;16.90;;;;;;;;;;5018635;28;20041;-71
2022/03/20 07:14:34;;;;;;;27.52;16.65;;;;;;;;;;5015990;28;20912;-72
2022/03/20 07:17:00;;;;;;;28.67;16.88;;;;;;;;;;5016646;28;21351;-72
2022/03/20 07:19:26;;;;;;;25.20;16.48;;;;;;;;;;5003129;28;20059;-72
2022/03/20 07:21:54;;;;;;;25.38;16.80;;;;;;;;;;5018539;28;20031;-71
2022/03/20 07:24:19;;;;;;;26.23;15.98;;;;;;;;;;5000622;28;20041;-71
2022/03/20 07:29:31;;;;;;;24.98;17.25;;;;;;;;;;5018562;28;20090;-71
2022/03/20 07:32:02;;;;;;;25.63;16.88;;;;;;;;;;5019080;28;20536;-71
2022/03/20 07:34:30;;;;;;;23.15;16.02;;;;;;;;;;5001916;28;20029;-72
2022/03/20 07:36:55;;;;;;;26.40;16.65;;;;;;;;;;5016394;28;20048;-72
2022/03/20 07:39:25;;;;;;;25.08;16.85;;;;;;;;;;5018567;28;20128;-72
2022/03/20 07:41:52;;;;;;;25.15;16.88;;;;;;;;;;5018826;28;20052;-71
2022/03/20 07:44:22;;;;;;;24.85;17.00;;;;;;;;;;4999521;28;20057;-72
2022/03/20 07:46:49;;;;;;;24.92;16.67;;;;;;;;;;5018894;28;20743;-72
2022/03/20 07:49:14;;;;;;;25.30;16.50;;;;;;;;;;5000668;28;20037;-72
2022/03/20 07:51:42;;;;;;;25.92;16.10;;;;;;;;;;5017578;28;20040;-73
2022/03/20 07:54:08;;;;;;;24.52;16.92;;;;;;;;;;5001656;28;20033;-71
2022/03/20 07:56:36;;;;;;;25.67;16.75;;;;;;;;;;5018726;28;20036;-71
2022/03/20 07:59:06;;;;;;;27.83;16.58;;;;;;;;;;5005062;28;20057;-71
2022/03/20 08:01:34;;;;;;;23.02;16.08;;;;;;;;;;5001138;28;20188;-72
2022/03/20 08:04:00;;;;;;;25.92;17.08;;;;;;;;;;5017681;28;20476;-72
2022/03/20 08:06:26;;;;;;;26.67;16.77;;;;;;;;;;5003271;28;20272;-71
2022/03/20 08:08:59;;;;;;;27.65;15.93;;;;;;;;;;5014598;28;20463;-72
2022/03/20 08:11:29;;;;;;;25.35;16.52;;;;;;;;;;5017729;28;20064;-72
2022/03/20 08:13:55;;;;;;;25.65;16.45;;;;;;;;;;5016258;28;20033;-70
2022/03/20 08:16:22;;;;;;;24.38;17.15;;;;;;;;;;5016441;28;20036;-72
2022/03/20 08:18:48;;;;;;;28.55;16.60;;;;;;;;;;5015952;28;20029;-71
2022/03/20 08:21:14;;;;;;;24.33;16.30;;;;;;;;;;5017460;28;20038;-71
2022/03/20 08:23:40;;;;;;;26.30;16.48;;;;;;;;;;5017772;28;21983;-71
2022/03/20 08:26:08;;;;;;;24.55;17.17;;;;;;;;;;5017339;28;20037;-70
2022/03/20 08:28:37;;;;;;;25.65;16.73;;;;;;;;;;5016308;28;20327;-71
2022/03/20 08:31:05;;;;;;;23.40;16.00;;;;;;;;;;5017205;28;20380;-70
2022/03/20 08:33:34;;;;;;;30.92;16.65;;;;;;;;;;5002400;28;20091;-71
2022/03/20 08:36:02;;;;;;;24.33;15.85;;;;;;;;;;5017095;28;20448;-70
2022/03/20 08:38:30;;;;;;;25.88;17.15;;;;;;;;;;5016684;28;20487;-71
2022/03/20 08:40:57;;;;;;;23.23;16.98;;;;;;;;;;5015614;28;20087;-71
2022/03/20 08:43:22;;;;;;;26.20;16.85;;;;;;;;;;4999450;28;20037;-70
2022/03/20 08:45:49;;;;;;;25.98;16.73;;;;;;;;;;5000230;28;20069;-70
2022/03/20 08:48:14;;;;;;;26.38;16.63;;;;;;;;;;5017017;28;20419;-72
2022/03/20 08:50:42;;;;;;;24.40;17.25;;;;;;;;;;4986760;28;20029;-72
2022/03/20 08:53:07;;;;;;;25.20;16.92;;;;;;;;;;5016010;28;20210;-71
2022/03/20 08:55:35;;;;;;;24.98;17.58;;;;;;;;;;5010470;28;21913;-69
2022/03/20 08:58:01;;;;;;;21.17;16.50;;;;;;;;;;4993284;28;20500;-71
2022/03/20 09:00:26;;;;;;;25.40;16.38;;;;;;;;;;4997677;28;20103;-74
2022/03/20 09:02:52;;;;;;;21.67;16.63;;;;;;;;;;5016728;28;20128;-73
2022/03/20 09:05:20;;;;;;;25.00;16.65;;;;;;;;;;5016738;28;20464;-71
2022/03/20 09:07:47;;;;;;;24.90;17.42;;;;;;;;;;4999924;28;20167;-73
2022/03/20 09:10:16;;;;;;;23.10;16.85;;;;;;;;;;5017773;28;20033;-73
2022/03/20 09:12:45;;;;;;;27.70;16.42;;;;;;;;;;5000281;28;20112;-73
2022/03/20 09:15:12;;;;;;;26.48;17.27;;;;;;;;;;5015598;28;20037;-71
2022/03/20 09:20:30;;;;;;;28.45;18.17;;;;;;;;;;5020552;28;20174;-71
2022/03/20 09:22:56;;;;;;;26.30;17.90;;;;;;;;;;5020662;28;20461;-71
2022/03/20 09:25:24;;;;;;;27.25;17.67;;;;;;;;;;5020755;28;20032;-71
2022/03/20 09:27:51;;;;;;;24.40;17.40;;;;;;;;;;5003201;28;20124;-70
2022/03/20 09:30:16;;;;;;;25.55;17.65;;;;;;;;;;5004185;28;20480;-74
2022/03/20 09:32:42;;;;;;;26.90;18.10;;;;;;;;;;4986781;28;20087;-70
2022/03/20 09:35:10;;;;;;;25.52;17.85;;;;;;;;;;5007112;28;20228;-73
2022/03/20 09:37:36;;;;;;;29.75;18.60;;;;;;;;;;5019847;28;20053;-72
2022/03/20 09:40:03;;;;;;;28.10;17.88;;;;;;;;;;5001113;28;20112;-70
2022/03/20 09:42:28;;;;;;;26.90;18.42;;;;;;;;;;5008834;28;20225;-70
2022/03/20 09:44:54;;;;;;;25.80;18.00;;;;;;;;;;5019709;28;20405;-71
2022/03/20 09:47:21;;;;;;;28.98;17.88;;;;;;;;;;5003308;28;20526;-71
2022/03/20 09:49:52;;;;;;;28.95;18.40;;;;;;;;;;5020639;28;20116;-71
2022/03/20 09:52:17;;;;;;;27.45;18.40;;;;;;;;;;5001842;28;20045;-71
2022/03/20 09:54:42;;;;;;;27.15;18.27;;;;;;;;;;5000324;28;20122;-71
2022/03/20 09:57:09;;;;;;;28.83;18.38;;;;;;;;;;5018584;28;20296;-78
2022/03/20 09:59:38;;;;;;;25.95;18.45;;;;;;;;;;4992003;28;20080;-75
2022/03/20 10:02:04;;;;;;;30.08;18.98;;;;;;;;;;5001308;28;20449;-78
2022/03/20 10:04:34;;;;;;;26.20;18.50;;;;;;;;;;5019287;28;20025;-79
2022/03/20 10:07:01;;;;;;;28.23;18.90;;;;;;;;;;5019606;28;20219;-78
2022/03/20 10:09:28;;;;;;;28.83;18.70;;;;;;;;;;5019382;28;20029;-77
2022/03/20 10:11:58;;;;;;;29.35;18.58;;;;;;;;;;5021536;28;20020;-78
2022/03/20 10:14:29;;;;;;;29.23;18.77;;;;;;;;;;5018760;28;20028;-76
2022/03/20 10:17:09;;;;;;;25.48;18.77;;;;;;;;;;5020312;28;20028;-78
2022/03/20 10:19:34;;;;;;;28.90;18.42;;;;;;;;;;5019161;28;20029;-77
2022/03/20 10:22:01;;;;;;;27.25;18.65;;;;;;;;;;5017708;28;20035;-76
2022/03/20 10:24:29;;;;;;;28.45;19.38;;;;;;;;;;5006861;28;20040;-76
2022/03/20 10:27:00;;;;;;;27.00;17.70;;;;;;;;;;5007180;28;20037;-77
2022/03/20 10:29:26;;;;;;;29.45;18.80;;;;;;;;;;5018472;28;20049;-77
2022/03/20 10:31:53;;;;;;;27.45;18.60;;;;;;;;;;5018416;28;20037;-77
2022/03/20 10:34:19;;;;;;;27.10;19.02;;;;;;;;;;5018414;28;20016;-72
2022/03/20 10:36:45;;;;;;;30.23;19.05;;;;;;;;;;5017049;28;20111;-76
2022/03/20 10:39:12;;;;;;;26.15;18.92;;;;;;;;;;5006701;28;21851;-77
2022/03/20 10:41:45;;;;;;;28.15;19.20;;;;;;;;;;5019205;28;20156;-76
2022/03/20 10:44:18;;;;;;;25.83;18.23;;;;;;;;;;5017597;28;20143;-76
2022/03/20 10:46:54;;;;;;;25.58;18.63;;;;;;;;;;5018690;28;20132;-75
2022/03/20 10:49:20;;;;;;;28.33;19.02;;;;;;;;;;5016777;28;20511;-76
2022/03/20 10:51:59;;;;;;;28.48;18.65;;;;;;;;;;5015788;28;20025;-76
2022/03/20 10:54:40;;;;;;;25.40;18.75;;;;;;;;;;5015439;28;20029;-75
2022/03/20 10:57:11;;;;;;;26.60;18.35;;;;;;;;;;5002003;28;20507;-75
2022/03/20 10:59:37;;;;;;;30.50;19.38;;;;;;;;;;5001468;28;20443;-77
2022/03/20 11:02:05;;;;;;;26.55;18.30;;;;;;;;;;5018508;28;20701;-76
2022/03/20 11:04:32;;;;;;;26.63;19.02;;;;;;;;;;5000554;28;20033;-76
2022/03/20 11:06:59;;;;;;;28.20;18.55;;;;;;;;;;5021211;28;20040;-77
2022/03/20 11:09:25;;;;;;;27.15;19.25;;;;;;;;;;5002839;28;20064;-78
2022/03/20 11:11:51;;;;;;;29.23;18.35;;;;;;;;;;5002912;28;20735;-76
2022/03/20 11:14:19;;;;;;;28.40;18.73;;;;;;;;;;5007937;28;20041;-77
2022/03/20 11:16:46;;;;;;;27.77;19.73;;;;;;;;;;5019277;28;20074;-76
2022/03/20 11:19:15;;;;;;;27.52;19.55;;;;;;;;;;4991870;28;20032;-77
2022/03/20 11:21:44;;;;;;;27.05;19.05;;;;;;;;;;5019452;28;20439;-76
2022/03/20 11:24:10;;;;;;;28.10;18.58;;;;;;;;;;5000867;28;20032;-76
2022/03/20 11:26:42;;;;;;;29.73;19.85;;;;;;;;;;5019902;28;20087;-77
2022/03/20 11:29:08;;;;;;;28.20;19.52;;;;;;;;;;5020797;28;20284;-76
2022/03/20 11:31:34;;;;;;;28.65;20.00;;;;;;;;;;5021242;28;20033;-76
2022/03/20 11:34:02;;;;;;;28.13;20.23;;;;;;;;;;5022034;28;20022;-76
2022/03/20 11:36:27;;;;;;;28.88;20.10;;;;;;;;;;5004497;28;20040;-77
2022/03/20 11:39:08;;;;;;;29.33;21.05;;;;;;;;;;5001568;28;20166;-77
2022/03/20 11:41:34;;;;;;;28.25;19.95;;;;;;;;;;5021636;28;20436;-77
2022/03/20 11:44:14;;;;;;;29.02;19.85;;;;;;;;;;5000662;28;20138;-77
2022/03/20 11:46:42;;;;;;;31.95;20.77;;;;;;;;;;5020353;28;20130;-77
2022/03/20 11:49:13;;;;;;;28.85;20.13;;;;;;;;;;5004630;28;20029;-78
2022/03/20 11:51:57;;;;;;;29.70;21.08;;;;;;;;;;5018384;28;20022;-77
2022/03/20 11:54:30;;;;;;;29.35;19.88;;;;;;;;;;5016031;28;20084;-76
2022/03/20 11:57:00;;;;;;;29.95;20.30;;;;;;;;;;5020042;28;20544;-78
2022/03/20 11:59:44;;;;;;;30.95;21.08;;;;;;;;;;5016305;28;20106;-77
2022/03/20 12:02:12;;;;;;;32.75;22.05;;;;;;;;;;5021012;28;20317;-77
2022/03/20 12:04:45;;;;;;;33.63;23.35;;;;;;;;;;5018086;28;20124;-79
2022/03/20 12:07:25;;;;;;;38.13;25.45;;;;;;;;;;5020600;28;20077;-77
2022/03/20 12:09:50;;;;;;;43.80;28.02;;;;;;;;;;5018715;28;20029;-78
2022/03/20 12:12:21;;;;;;;37.38;25.80;;;;;;;;;;5016089;28;20427;-80
2022/03/20 12:14:53;;;;;;;37.88;26.23;;;;;;;;;;5017202;28;20659;-77
2022/03/20 12:17:19;;;;;;;36.25;25.60;;;;;;;;;;5017207;28;20473;-77
2022/03/20 12:19:49;;;;;;;35.97;25.38;;;;;;;;;;4999136;28;20036;-77
2022/03/20 12:22:27;;;;;;;36.85;24.45;;;;;;;;;;5016282;28;20051;-79
2022/03/20 12:25:00;;;;;;;32.58;22.58;;;;;;;;;;5016967;28;20034;-78
2022/03/20 12:27:29;;;;;;;37.40;25.27;;;;;;;;;;5000851;28;20037;-78
2022/03/20 12:29:58;;;;;;;36.88;24.85;;;;;;;;;;5015221;28;20024;-78
2022/03/20 12:32:29;;;;;;;34.13;24.10;;;;;;;;;;5016882;28;20029;-77
2022/03/20 12:34:59;;;;;;;35.63;23.58;;;;;;;;;;5016959;28;20090;-77
2022/03/20 12:37:30;;;;;;;36.47;24.73;;;;;;;;;;5015878;28;20242;-76
2022/03/20 12:40:01;;;;;;;34.53;24.73;;;;;;;;;;5016561;28;20072;-77
2022/03/20 12:42:29;;;;;;;33.80;23.65;;;;;;;;;;5014422;28;20171;-77
2022/03/20 12:44:55;;;;;;;44.42;26.73;;;;;;;;;;5016034;28;20041;-77
2022/03/20 12:47:23;;;;;;;41.53;29.48;;;;;;;;;;5016903;28;20167;-77
2022/03/20 12:49:58;;;;;;;46.95;28.48;;;;;;;;;;5016369;28;20535;-77
2022/03/20 12:52:27;;;;;;;38.15;26.08;;;;;;;;;;5016005;28;20085;-76
2022/03/20 12:54:55;;;;;;;34.78;25.75;;;;;;;;;;4998315;28;20501;-76
2022/03/20 12:57:37;;;;;;;43.53;27.23;;;;;;;;;;5016695;28;20025;-76
2022/03/20 13:00:16;;;;;;;37.67;26.77;;;;;;;;;;5002259;28;20068;-76
2022/03/20 13:03:14;;;;;;;44.72;29.05;;;;;;;;;;4996849;28;20335;-76
2022/03/20 13:05:57;;;;;;;44.08;30.85;;;;;;;;;;4968161;28;22023;-75
2022/03/20 13:08:22;;;;;;;;;;;;;;;;;;5012931;28;20033;-76
2022/03/20 13:10:49;;;;;;;36.85;26.38;;;;;;;;;;4995931;28;19999;-76
2022/03/20 13:13:21;;;;;;;35.83;25.73;;;;;;;;;;4996665;28;20880;-75
2022/03/20 13:15:48;;;;;;;36.35;25.25;;;;;;;;;;4997280;28;20192;-75
2022/03/20 13:18:16;;;;;;;37.58;26.77;;;;;;;;;;4996270;28;20106;-76
2022/03/20 13:20:45;;;;;;;36.08;25.95;;;;;;;;;;4997109;28;20037;-76
2022/03/20 13:23:11;;;;;;;39.50;27.30;;;;;;;;;;4997045;28;20025;-75
2022/03/20 13:25:41;;;;;;;35.65;25.20;;;;;;;;;;4997456;28;20127;-75
2022/03/20 13:28:07;;;;;;;38.63;26.50;;;;;;;;;;5000016;28;20036;-75
2022/03/20 13:30:35;;;;;;;37.20;26.70;;;;;;;;;;4996879;28;20527;-75
2022/03/20 13:33:01;;;;;;;35.40;26.73;;;;;;;;;;4996223;28;20378;-75
2022/03/20 13:35:26;;;;;;;38.20;27.50;;;;;;;;;;4997648;28;20025;-75
2022/03/20 13:37:59;;;;;;;39.28;27.38;;;;;;;;;;5002390;28;20018;-76
2022/03/20 13:40:25;;;;;;;37.75;26.25;;;;;;;;;;5011164;28;20025;-76
2022/03/20 13:42:50;;;;;;;35.22;25.25;;;;;;;;;;5001916;28;20056;-75
2022/03/20 13:45:16;;;;;;;37.90;26.65;;;;;;;;;;4997045;28;20026;-75
2022/03/20 13:47:42;;;;;;;36.03;26.02;;;;;;;;;;4996050;28;20429;-75
2022/03/20 13:50:07;;;;;;;36.38;25.45;;;;;;;;;;4996420;28;20029;-75
2022/03/20 13:52:35;;;;;;;36.90;25.80;;;;;;;;;;4978690;28;20026;-76
2022/03/20 13:55:01;;;;;;;35.05;25.27;;;;;;;;;;4998757;28;20031;-75
2022/03/20 13:57:28;;;;;;;34.17;25.55;;;;;;;;;;5012363;28;20281;-76
2022/03/20 13:59:55;;;;;;;35.70;26.17;;;;;;;;;;4996842;28;20160;-77
2022/03/20 14:02:21;;;;;;;36.28;26.02;;;;;;;;;;4997570;28;20508;-75
2022/03/20 14:04:54;;;;;;;38.67;26.40;;;;;;;;;;5002387;28;20037;-75
2022/03/20 14:07:23;;;;;;;36.75;25.45;;;;;;;;;;5005343;28;20057;-76
2022/03/20 14:09:49;;;;;;;36.60;25.02;;;;;;;;;;5000727;28;20387;-78
2022/03/20 14:12:22;;;;;;;39.22;27.77;;;;;;;;;;5002117;28;20026;-76
2022/03/20 14:14:48;;;;;;;35.63;26.10;;;;;;;;;;5002252;28;20029;-76
2022/03/20 14:17:13;;;;;;;36.45;25.42;;;;;;;;;;5000290;28;20056;-77
2022/03/20 14:19:43;;;;;;;34.00;24.98;;;;;;;;;;5001769;28;20132;-76
2022/03/20 14:22:11;;;;;;;38.35;26.45;;;;;;;;;;5000421;28;20075;-76
2022/03/20 14:24:54;;;;;;;36.85;26.45;;;;;;;;;;4998875;28;20025;-77
2022/03/20 14:27:27;;;;;;;42.22;27.00;;;;;;;;;;5001305;28;20374;-76
2022/03/20 14:40:56;;;;;;;38.40;27.35;;;;;;;;;;4999345;28;20586;-76
2022/03/20 14:43:26;;;;;;;42.42;26.92;;;;;;;;;;4998518;28;20328;-77
2022/03/20 14:45:53;;;;;;;37.80;26.77;;;;;;;;;;4999883;28;20030;-76
2022/03/20 14:48:22;;;;;;;40.33;28.08;;;;;;;;;;5000660;28;20137;-77
2022/03/20 14:50:47;;;;;;;39.05;27.55;;;;;;;;;;4998447;28;20029;-77
2022/03/20 14:53:25;;;;;;;40.28;28.45;;;;;;;;;;4983886;28;20393;-76
2022/03/20 14:55:54;;;;;;;40.20;27.42;;;;;;;;;;4999725;28;20070;-76
2022/03/20 14:58:20;;;;;;;38.47;27.83;;;;;;;;;;4999295;28;20046;-77
2022/03/20 15:00:48;;;;;;;41.45;27.35;;;;;;;;;;5019110;28;20053;-77
2022/03/20 15:03:13;;;;;;;38.47;27.48;;;;;;;;;;5020222;28;20042;-77
2022/03/20 15:05:43;;;;;;;39.88;27.83;;;;;;;;;;5005767;28;20388;-77